sensor_id;sensor_type;location;lat;lon;timestamp;P1;durP1;ratioP1;P2;durP2;ratioP2
24644;SDS011;12780;45.502;9.146;2022-07-23T00:01:18;16.15;;;6.45;;
24644;SDS011;12780;45.502;9.146;2022-07-23T00:03:44;10.57;;;6.07;;
24644;SDS011;12780;45.502;9.146;2022-07-23T00:06:10;11.88;;;6.75;;
24644;SDS011;12780;45.502;9.146;2022-07-23T00:08:35;9.90;;;6.72;;
24644;SDS011;12780;45.502;9.146;2022-07-23T00:11:01;15.88;;;6.78;;
24644;SDS011;12780;45.502;9.146;2022-07-23T00:13:27;13.57;;;6.97;;
24644;SDS011;12780;45.502;9.146;2022-07-23T00:15:52;12.07;;;6.90;;
24644;SDS011;12780;45.502;9.146;2022-07-23T00:18:18;13.02;;;7.05;;
24644;SDS011;12780;45.502;9.146;2022-07-23T00:20:44;10.45;;;6.25;;
24644;SDS011;12780;45.502;9.146;2022-07-23T00:23:10;9.35;;;5.90;;
24644;SDS011;12780;45.502;9.146;2022-07-23T00:25:35;12.88;;;6.30;;
24644;SDS011;12780;45.502;9.146;2022-07-23T00:28:01;16.00;;;7.15;;
24644;SDS011;12780;45.502;9.146;2022-07-23T00:30:27;13.48;;;6.78;;
24644;SDS011;12780;45.502;9.146;2022-07-23T00:32:56;17.30;;;7.25;;
24644;SDS011;12780;45.502;9.146;2022-07-23T00:35:26;11.52;;;6.50;;
24644;SDS011;12780;45.502;9.146;2022-07-23T00:37:53;13.35;;;6.53;;
24644;SDS011;12780;45.502;9.146;2022-07-23T00:40:20;9.80;;;6.50;;
24644;SDS011;12780;45.502;9.146;2022-07-23T00:42:46;11.88;;;6.75;;
24644;SDS011;12780;45.502;9.146;2022-07-23T00:45:11;10.45;;;6.68;;
24644;SDS011;12780;45.502;9.146;2022-07-23T00:47:37;13.48;;;7.75;;
24644;SDS011;12780;45.502;9.146;2022-07-23T00:50:04;12.77;;;7.13;;
24644;SDS011;12780;45.502;9.146;2022-07-23T00:52:31;13.63;;;6.90;;
24644;SDS011;12780;45.502;9.146;2022-07-23T00:54:57;11.75;;;6.38;;
24644;SDS011;12780;45.502;9.146;2022-07-23T00:57:23;12.68;;;6.90;;
24644;SDS011;12780;45.502;9.146;2022-07-23T00:59:49;11.68;;;6.45;;
24644;SDS011;12780;45.502;9.146;2022-07-23T01:02:14;15.38;;;7.07;;
24644;SDS011;12780;45.502;9.146;2022-07-23T01:04:40;13.60;;;6.60;;
24644;SDS011;12780;45.502;9.146;2022-07-23T01:07:06;10.20;;;6.60;;
24644;SDS011;12780;45.502;9.146;2022-07-23T01:09:32;10.98;;;7.38;;
24644;SDS011;12780;45.502;9.146;2022-07-23T01:11:58;12.18;;;6.57;;
24644;SDS011;12780;45.502;9.146;2022-07-23T01:14:24;10.40;;;6.68;;
24644;SDS011;12780;45.502;9.146;2022-07-23T01:16:50;12.00;;;6.68;;
24644;SDS011;12780;45.502;9.146;2022-07-23T01:19:16;9.65;;;6.63;;
24644;SDS011;12780;45.502;9.146;2022-07-23T01:21:43;11.93;;;6.80;;
24644;SDS011;12780;45.502;9.146;2022-07-23T01:24:11;11.18;;;6.82;;
24644;SDS011;12780;45.502;9.146;2022-07-23T01:26:37;10.15;;;6.47;;
24644;SDS011;12780;45.502;9.146;2022-07-23T01:29:04;12.82;;;7.43;;
24644;SDS011;12780;45.502;9.146;2022-07-23T01:31:29;11.48;;;7.13;;
24644;SDS011;12780;45.502;9.146;2022-07-23T01:33:56;9.77;;;6.70;;
24644;SDS011;12780;45.502;9.146;2022-07-23T01:36:22;14.85;;;7.10;;
24644;SDS011;12780;45.502;9.146;2022-07-23T01:38:48;11.13;;;7.18;;
24644;SDS011;12780;45.502;9.146;2022-07-23T01:41:13;11.48;;;6.90;;
24644;SDS011;12780;45.502;9.146;2022-07-23T01:43:39;12.40;;;6.90;;
24644;SDS011;12780;45.502;9.146;2022-07-23T01:46:04;10.25;;;6.82;;
24644;SDS011;12780;45.502;9.146;2022-07-23T01:48:30;9.45;;;6.63;;
24644;SDS011;12780;45.502;9.146;2022-07-23T01:50:56;13.02;;;6.75;;
24644;SDS011;12780;45.502;9.146;2022-07-23T01:53:21;19.85;;;6.40;;
24644;SDS011;12780;45.502;9.146;2022-07-23T01:55:47;15.15;;;6.78;;
24644;SDS011;12780;45.502;9.146;2022-07-23T01:58:13;10.98;;;6.90;;
24644;SDS011;12780;45.502;9.146;2022-07-23T02:00:38;12.57;;;6.95;;
24644;SDS011;12780;45.502;9.146;2022-07-23T02:03:04;15.70;;;7.40;;
24644;SDS011;12780;45.502;9.146;2022-07-23T02:05:30;14.70;;;6.70;;
24644;SDS011;12780;45.502;9.146;2022-07-23T02:07:56;10.70;;;6.85;;
24644;SDS011;12780;45.502;9.146;2022-07-23T02:10:22;16.38;;;7.65;;
24644;SDS011;12780;45.502;9.146;2022-07-23T02:12:48;14.25;;;6.90;;
24644;SDS011;12780;45.502;9.146;2022-07-23T02:15:14;10.93;;;7.35;;
24644;SDS011;12780;45.502;9.146;2022-07-23T02:17:40;9.80;;;6.85;;
24644;SDS011;12780;45.502;9.146;2022-07-23T02:20:07;16.17;;;7.53;;
24644;SDS011;12780;45.502;9.146;2022-07-23T02:22:34;11.52;;;6.85;;
24644;SDS011;12780;45.502;9.146;2022-07-23T02:24:59;11.95;;;6.90;;
24644;SDS011;12780;45.502;9.146;2022-07-23T02:27:25;12.27;;;7.40;;
24644;SDS011;12780;45.502;9.146;2022-07-23T02:29:51;13.88;;;7.82;;
24644;SDS011;12780;45.502;9.146;2022-07-23T02:32:16;14.13;;;7.40;;
24644;SDS011;12780;45.502;9.146;2022-07-23T02:34:42;10.43;;;7.13;;
24644;SDS011;12780;45.502;9.146;2022-07-23T02:37:07;14.48;;;7.38;;
24644;SDS011;12780;45.502;9.146;2022-07-23T02:39:33;15.93;;;7.72;;
24644;SDS011;12780;45.502;9.146;2022-07-23T02:42:02;12.57;;;7.20;;
24644;SDS011;12780;45.502;9.146;2022-07-23T02:44:28;16.15;;;7.32;;
24644;SDS011;12780;45.502;9.146;2022-07-23T02:46:53;11.15;;;7.22;;
24644;SDS011;12780;45.502;9.146;2022-07-23T02:49:19;19.05;;;7.88;;
24644;SDS011;12780;45.502;9.146;2022-07-23T02:51:45;15.45;;;7.82;;
24644;SDS011;12780;45.502;9.146;2022-07-23T02:54:10;16.27;;;7.75;;
24644;SDS011;12780;45.502;9.146;2022-07-23T02:56:36;12.95;;;7.22;;
24644;SDS011;12780;45.502;9.146;2022-07-23T02:59:01;12.73;;;7.60;;
24644;SDS011;12780;45.502;9.146;2022-07-23T03:01:27;18.65;;;7.88;;
24644;SDS011;12780;45.502;9.146;2022-07-23T03:03:53;9.82;;;7.65;;
24644;SDS011;12780;45.502;9.146;2022-07-23T03:06:18;12.90;;;7.78;;
24644;SDS011;12780;45.502;9.146;2022-07-23T03:08:44;13.75;;;7.35;;
24644;SDS011;12780;45.502;9.146;2022-07-23T03:11:10;14.38;;;8.18;;
24644;SDS011;12780;45.502;9.146;2022-07-23T03:13:38;14.32;;;8.05;;
24644;SDS011;12780;45.502;9.146;2022-07-23T03:16:05;14.63;;;8.18;;
24644;SDS011;12780;45.502;9.146;2022-07-23T03:18:31;16.85;;;8.57;;
24644;SDS011;12780;45.502;9.146;2022-07-23T03:20:58;16.20;;;8.27;;
24644;SDS011;12780;45.502;9.146;2022-07-23T03:23:23;14.95;;;8.32;;
24644;SDS011;12780;45.502;9.146;2022-07-23T03:25:49;13.52;;;8.40;;
24644;SDS011;12780;45.502;9.146;2022-07-23T03:28:15;18.42;;;8.80;;
24644;SDS011;12780;45.502;9.146;2022-07-23T03:30:42;16.40;;;7.43;;
24644;SDS011;12780;45.502;9.146;2022-07-23T03:33:08;20.00;;;8.05;;
24644;SDS011;12780;45.502;9.146;2022-07-23T03:35:34;15.18;;;8.35;;
24644;SDS011;12780;45.502;9.146;2022-07-23T03:37:59;13.88;;;8.40;;
24644;SDS011;12780;45.502;9.146;2022-07-23T03:40:25;18.52;;;8.00;;
24644;SDS011;12780;45.502;9.146;2022-07-23T03:42:51;10.75;;;6.90;;
24644;SDS011;12780;45.502;9.146;2022-07-23T03:45:16;13.70;;;7.70;;
24644;SDS011;12780;45.502;9.146;2022-07-23T03:47:42;17.60;;;8.18;;
24644;SDS011;12780;45.502;9.146;2022-07-23T03:50:09;13.88;;;8.00;;
24644;SDS011;12780;45.502;9.146;2022-07-23T03:52:35;14.43;;;7.47;;
24644;SDS011;12780;45.502;9.146;2022-07-23T03:55:01;16.67;;;8.55;;
24644;SDS011;12780;45.502;9.146;2022-07-23T03:57:27;14.10;;;8.45;;
24644;SDS011;12780;45.502;9.146;2022-07-23T03:59:53;17.08;;;8.77;;
24644;SDS011;12780;45.502;9.146;2022-07-23T04:02:19;15.85;;;8.20;;
24644;SDS011;12780;45.502;9.146;2022-07-23T04:04:44;14.98;;;8.25;;
24644;SDS011;12780;45.502;9.146;2022-07-23T04:07:11;14.13;;;8.38;;
24644;SDS011;12780;45.502;9.146;2022-07-23T04:09:37;16.02;;;8.40;;
24644;SDS011;12780;45.502;9.146;2022-07-23T04:12:05;17.08;;;7.97;;
24644;SDS011;12780;45.502;9.146;2022-07-23T04:14:32;15.35;;;8.10;;
24644;SDS011;12780;45.502;9.146;2022-07-23T04:16:58;12.10;;;7.30;;
24644;SDS011;12780;45.502;9.146;2022-07-23T04:19:24;15.77;;;7.63;;
24644;SDS011;12780;45.502;9.146;2022-07-23T04:21:50;13.57;;;8.05;;
24644;SDS011;12780;45.502;9.146;2022-07-23T04:24:16;14.57;;;8.23;;
24644;SDS011;12780;45.502;9.146;2022-07-23T04:26:41;17.38;;;8.00;;
24644;SDS011;12780;45.502;9.146;2022-07-23T04:29:07;14.90;;;7.85;;
24644;SDS011;12780;45.502;9.146;2022-07-23T04:31:33;18.98;;;7.65;;
24644;SDS011;12780;45.502;9.146;2022-07-23T04:33:58;15.30;;;8.05;;
24644;SDS011;12780;45.502;9.146;2022-07-23T04:36:24;15.73;;;6.80;;
24644;SDS011;12780;45.502;9.146;2022-07-23T04:38:50;10.52;;;6.82;;
24644;SDS011;12780;45.502;9.146;2022-07-23T04:41:15;15.35;;;6.72;;
24644;SDS011;12780;45.502;9.146;2022-07-23T04:43:41;12.63;;;6.35;;
24644;SDS011;12780;45.502;9.146;2022-07-23T04:46:06;11.27;;;6.10;;
24644;SDS011;12780;45.502;9.146;2022-07-23T04:48:32;10.68;;;6.47;;
24644;SDS011;12780;45.502;9.146;2022-07-23T04:50:59;13.38;;;6.30;;
24644;SDS011;12780;45.502;9.146;2022-07-23T04:53:25;14.05;;;6.30;;
24644;SDS011;12780;45.502;9.146;2022-07-23T04:55:51;9.13;;;5.65;;
24644;SDS011;12780;45.502;9.146;2022-07-23T04:58:16;7.70;;;5.43;;
24644;SDS011;12780;45.502;9.146;2022-07-23T05:00:42;14.65;;;5.38;;
24644;SDS011;12780;45.502;9.146;2022-07-23T05:03:07;7.32;;;4.80;;
24644;SDS011;12780;45.502;9.146;2022-07-23T05:05:33;7.95;;;5.10;;
24644;SDS011;12780;45.502;9.146;2022-07-23T05:07:59;8.70;;;4.97;;
24644;SDS011;12780;45.502;9.146;2022-07-23T05:10:24;9.40;;;5.00;;
24644;SDS011;12780;45.502;9.146;2022-07-23T05:12:50;8.15;;;4.80;;
24644;SDS011;12780;45.502;9.146;2022-07-23T05:15:15;13.48;;;4.57;;
24644;SDS011;12780;45.502;9.146;2022-07-23T05:17:41;11.32;;;5.07;;
24644;SDS011;12780;45.502;9.146;2022-07-23T05:20:07;11.73;;;5.00;;
24644;SDS011;12780;45.502;9.146;2022-07-23T05:22:33;11.52;;;4.53;;
24644;SDS011;12780;45.502;9.146;2022-07-23T05:24:58;10.73;;;4.80;;
24644;SDS011;12780;45.502;9.146;2022-07-23T05:27:24;8.95;;;4.57;;
24644;SDS011;12780;45.502;9.146;2022-07-23T05:29:49;9.10;;;4.80;;
24644;SDS011;12780;45.502;9.146;2022-07-23T05:32:15;8.45;;;4.88;;
24644;SDS011;12780;45.502;9.146;2022-07-23T05:34:41;16.80;;;5.13;;
24644;SDS011;12780;45.502;9.146;2022-07-23T05:37:06;11.93;;;5.35;;
24644;SDS011;12780;45.502;9.146;2022-07-23T05:39:32;15.65;;;5.35;;
24644;SDS011;12780;45.502;9.146;2022-07-23T05:41:58;9.75;;;5.05;;
24644;SDS011;12780;45.502;9.146;2022-07-23T05:44:23;13.60;;;5.30;;
24644;SDS011;12780;45.502;9.146;2022-07-23T05:46:49;7.68;;;4.60;;
24644;SDS011;12780;45.502;9.146;2022-07-23T05:49:15;9.00;;;4.90;;
24644;SDS011;12780;45.502;9.146;2022-07-23T05:51:40;10.30;;;4.90;;
24644;SDS011;12780;45.502;9.146;2022-07-23T05:54:06;11.05;;;4.75;;
24644;SDS011;12780;45.502;9.146;2022-07-23T05:56:31;11.02;;;4.43;;
24644;SDS011;12780;45.502;9.146;2022-07-23T05:58:57;10.27;;;5.15;;
24644;SDS011;12780;45.502;9.146;2022-07-23T06:01:23;10.55;;;4.25;;
24644;SDS011;12780;45.502;9.146;2022-07-23T06:03:48;10.10;;;4.18;;
24644;SDS011;12780;45.502;9.146;2022-07-23T06:06:14;13.30;;;3.85;;
24644;SDS011;12780;45.502;9.146;2022-07-23T06:08:39;8.57;;;3.95;;
24644;SDS011;12780;45.502;9.146;2022-07-23T06:11:05;6.75;;;3.80;;
24644;SDS011;12780;45.502;9.146;2022-07-23T06:13:30;15.98;;;4.00;;
24644;SDS011;12780;45.502;9.146;2022-07-23T06:15:56;11.18;;;3.78;;
24644;SDS011;12780;45.502;9.146;2022-07-23T06:18:22;10.52;;;3.80;;
24644;SDS011;12780;45.502;9.146;2022-07-23T06:20:47;14.13;;;4.25;;
24644;SDS011;12780;45.502;9.146;2022-07-23T06:23:13;10.38;;;3.70;;
24644;SDS011;12780;45.502;9.146;2022-07-23T06:25:39;9.80;;;4.15;;
24644;SDS011;12780;45.502;9.146;2022-07-23T06:28:04;16.23;;;3.75;;
24644;SDS011;12780;45.502;9.146;2022-07-23T06:30:30;11.55;;;3.83;;
24644;SDS011;12780;45.502;9.146;2022-07-23T06:32:56;8.35;;;3.92;;
24644;SDS011;12780;45.502;9.146;2022-07-23T06:35:21;13.25;;;4.45;;
24644;SDS011;12780;45.502;9.146;2022-07-23T06:37:47;7.60;;;3.40;;
24644;SDS011;12780;45.502;9.146;2022-07-23T06:40:12;9.63;;;4.43;;
24644;SDS011;12780;45.502;9.146;2022-07-23T06:42:38;12.73;;;3.65;;
24644;SDS011;12780;45.502;9.146;2022-07-23T06:45:05;10.88;;;3.47;;
24644;SDS011;12780;45.502;9.146;2022-07-23T06:47:31;9.77;;;3.70;;
24644;SDS011;12780;45.502;9.146;2022-07-23T06:49:57;5.28;;;3.60;;
24644;SDS011;12780;45.502;9.146;2022-07-23T06:52:23;10.48;;;4.00;;
24644;SDS011;12780;45.502;9.146;2022-07-23T06:54:49;8.88;;;3.90;;
24644;SDS011;12780;45.502;9.146;2022-07-23T06:57:14;16.25;;;3.83;;
24644;SDS011;12780;45.502;9.146;2022-07-23T06:59:40;9.98;;;3.65;;
24644;SDS011;12780;45.502;9.146;2022-07-23T07:02:06;8.40;;;3.40;;
24644;SDS011;12780;45.502;9.146;2022-07-23T07:04:33;7.38;;;3.55;;
24644;SDS011;12780;45.502;9.146;2022-07-23T07:06:59;6.00;;;4.10;;
24644;SDS011;12780;45.502;9.146;2022-07-23T07:09:25;9.18;;;4.32;;
24644;SDS011;12780;45.502;9.146;2022-07-23T07:11:50;11.73;;;5.03;;
24644;SDS011;12780;45.502;9.146;2022-07-23T07:14:16;13.00;;;5.05;;
24644;SDS011;12780;45.502;9.146;2022-07-23T07:16:42;6.22;;;4.65;;
24644;SDS011;12780;45.502;9.146;2022-07-23T07:19:07;6.38;;;4.43;;
24644;SDS011;12780;45.502;9.146;2022-07-23T07:21:33;11.07;;;4.97;;
24644;SDS011;12780;45.502;9.146;2022-07-23T07:23:59;9.48;;;4.90;;
24644;SDS011;12780;45.502;9.146;2022-07-23T07:26:25;7.30;;;4.55;;
24644;SDS011;12780;45.502;9.146;2022-07-23T07:28:50;9.13;;;4.10;;
24644;SDS011;12780;45.502;9.146;2022-07-23T07:31:16;9.82;;;4.88;;
24644;SDS011;12780;45.502;9.146;2022-07-23T07:33:42;13.82;;;5.25;;
24644;SDS011;12780;45.502;9.146;2022-07-23T07:36:07;11.00;;;5.55;;
24644;SDS011;12780;45.502;9.146;2022-07-23T07:38:33;10.05;;;5.60;;
24644;SDS011;12780;45.502;9.146;2022-07-23T07:40:59;8.27;;;4.95;;
24644;SDS011;12780;45.502;9.146;2022-07-23T07:43:26;8.27;;;4.68;;
24644;SDS011;12780;45.502;9.146;2022-07-23T07:45:51;12.80;;;4.90;;
24644;SDS011;12780;45.502;9.146;2022-07-23T07:48:17;14.05;;;5.60;;
24644;SDS011;12780;45.502;9.146;2022-07-23T07:50:43;12.48;;;5.60;;
24644;SDS011;12780;45.502;9.146;2022-07-23T07:53:08;10.93;;;5.82;;
24644;SDS011;12780;45.502;9.146;2022-07-23T07:55:34;14.18;;;6.45;;
24644;SDS011;12780;45.502;9.146;2022-07-23T07:58:00;12.43;;;6.20;;
24644;SDS011;12780;45.502;9.146;2022-07-23T08:00:26;13.32;;;6.28;;
24644;SDS011;12780;45.502;9.146;2022-07-23T08:02:52;11.95;;;5.85;;
24644;SDS011;12780;45.502;9.146;2022-07-23T08:05:19;12.88;;;6.50;;
24644;SDS011;12780;45.502;9.146;2022-07-23T08:07:50;10.45;;;5.88;;
24644;SDS011;12780;45.502;9.146;2022-07-23T08:10:16;10.45;;;6.10;;
24644;SDS011;12780;45.502;9.146;2022-07-23T08:12:46;15.70;;;8.73;;
24644;SDS011;12780;45.502;9.146;2022-07-23T08:15:17;16.52;;;6.55;;
24644;SDS011;12780;45.502;9.146;2022-07-23T08:17:44;17.70;;;7.32;;
24644;SDS011;12780;45.502;9.146;2022-07-23T08:20:11;13.38;;;7.80;;
24644;SDS011;12780;45.502;9.146;2022-07-23T08:22:50;19.50;;;7.40;;
24644;SDS011;12780;45.502;9.146;2022-07-23T08:25:27;17.92;;;7.22;;
24644;SDS011;12780;45.502;9.146;2022-07-23T08:27:54;12.02;;;7.60;;
24644;SDS011;12780;45.502;9.146;2022-07-23T08:30:22;14.98;;;7.22;;
24644;SDS011;12780;45.502;9.146;2022-07-23T08:32:55;13.38;;;7.07;;
24644;SDS011;12780;45.502;9.146;2022-07-23T08:35:32;9.77;;;6.55;;
24644;SDS011;12780;45.502;9.146;2022-07-23T08:38:00;12.25;;;7.22;;
24644;SDS011;12780;45.502;9.146;2022-07-23T08:40:29;13.27;;;7.25;;
24644;SDS011;12780;45.502;9.146;2022-07-23T08:42:56;11.52;;;6.43;;
24644;SDS011;12780;45.502;9.146;2022-07-23T08:45:23;12.77;;;7.07;;
24644;SDS011;12780;45.502;9.146;2022-07-23T08:47:51;11.35;;;7.32;;
24644;SDS011;12780;45.502;9.146;2022-07-23T08:50:19;14.30;;;7.10;;
24644;SDS011;12780;45.502;9.146;2022-07-23T08:52:46;11.95;;;7.15;;
24644;SDS011;12780;45.502;9.146;2022-07-23T08:55:13;12.85;;;7.47;;
24644;SDS011;12780;45.502;9.146;2022-07-23T08:57:43;12.75;;;7.10;;
24644;SDS011;12780;45.502;9.146;2022-07-23T09:00:09;11.45;;;6.95;;
24644;SDS011;12780;45.502;9.146;2022-07-23T09:02:39;12.13;;;7.35;;
24644;SDS011;12780;45.502;9.146;2022-07-23T09:05:06;12.70;;;7.10;;
24644;SDS011;12780;45.502;9.146;2022-07-23T09:07:32;13.45;;;7.60;;
24644;SDS011;12780;45.502;9.146;2022-07-23T09:10:08;12.93;;;8.05;;
24644;SDS011;12780;45.502;9.146;2022-07-23T09:12:35;13.30;;;7.50;;
24644;SDS011;12780;45.502;9.146;2022-07-23T09:15:07;14.30;;;7.78;;
24644;SDS011;12780;45.502;9.146;2022-07-23T09:17:38;12.38;;;7.93;;
24644;SDS011;12780;45.502;9.146;2022-07-23T09:20:09;15.47;;;8.10;;
24644;SDS011;12780;45.502;9.146;2022-07-23T09:22:40;12.43;;;7.63;;
24644;SDS011;12780;45.502;9.146;2022-07-23T09:25:12;14.38;;;7.28;;
24644;SDS011;12780;45.502;9.146;2022-07-23T09:27:55;13.50;;;8.40;;
24644;SDS011;12780;45.502;9.146;2022-07-23T09:30:23;22.63;;;7.97;;
24644;SDS011;12780;45.502;9.146;2022-07-23T09:38:10;13.82;;;8.45;;
24644;SDS011;12780;45.502;9.146;2022-07-23T09:40:35;13.00;;;8.02;;
24644;SDS011;12780;45.502;9.146;2022-07-23T09:43:01;19.15;;;8.18;;
24644;SDS011;12780;45.502;9.146;2022-07-23T09:45:26;15.55;;;8.50;;
24644;SDS011;12780;45.502;9.146;2022-07-23T09:47:55;17.98;;;8.25;;
24644;SDS011;12780;45.502;9.146;2022-07-23T09:50:42;17.55;;;7.93;;
24644;SDS011;12780;45.502;9.146;2022-07-23T09:53:08;10.02;;;8.10;;
24644;SDS011;12780;45.502;9.146;2022-07-23T09:55:35;12.15;;;8.27;;
24644;SDS011;12780;45.502;9.146;2022-07-23T09:58:04;14.52;;;7.65;;
24644;SDS011;12780;45.502;9.146;2022-07-23T10:00:32;12.90;;;7.63;;
24644;SDS011;12780;45.502;9.146;2022-07-23T10:02:58;13.57;;;7.78;;
24644;SDS011;12780;45.502;9.146;2022-07-23T10:05:25;13.48;;;8.38;;
24644;SDS011;12780;45.502;9.146;2022-07-23T10:07:52;12.98;;;8.27;;
24644;SDS011;12780;45.502;9.146;2022-07-23T10:10:18;13.82;;;8.43;;
24644;SDS011;12780;45.502;9.146;2022-07-23T10:12:45;10.35;;;7.82;;
24644;SDS011;12780;45.502;9.146;2022-07-23T10:15:17;13.65;;;8.20;;
24644;SDS011;12780;45.502;9.146;2022-07-23T10:17:43;13.88;;;8.45;;
24644;SDS011;12780;45.502;9.146;2022-07-23T10:20:09;16.38;;;9.10;;
24644;SDS011;12780;45.502;9.146;2022-07-23T10:22:35;13.90;;;7.95;;
24644;SDS011;12780;45.502;9.146;2022-07-23T10:33:09;15.65;;;7.95;;
24644;SDS011;12780;45.502;9.146;2022-07-23T10:35:44;12.65;;;8.52;;
24644;SDS011;12780;45.502;9.146;2022-07-23T10:38:43;14.50;;;8.40;;
24644;SDS011;12780;45.502;9.146;2022-07-23T10:41:13;13.02;;;8.60;;
24644;SDS011;12780;45.502;9.146;2022-07-23T10:43:39;13.30;;;7.82;;
24644;SDS011;12780;45.502;9.146;2022-07-23T10:49:05;15.77;;;8.85;;
24644;SDS011;12780;45.502;9.146;2022-07-23T10:57:12;15.80;;;9.10;;
24644;SDS011;12780;45.502;9.146;2022-07-23T11:02:28;14.20;;;7.90;;
24644;SDS011;12780;45.502;9.146;2022-07-23T11:04:58;18.52;;;8.82;;
24644;SDS011;12780;45.502;9.146;2022-07-23T11:07:26;19.20;;;9.13;;
24644;SDS011;12780;45.502;9.146;2022-07-23T11:09:51;13.55;;;8.70;;
24644;SDS011;12780;45.502;9.146;2022-07-23T11:17:25;17.90;;;8.88;;
24644;SDS011;12780;45.502;9.146;2022-07-23T11:22:37;14.40;;;8.50;;
24644;SDS011;12780;45.502;9.146;2022-07-23T11:25:03;13.18;;;8.98;;
24644;SDS011;12780;45.502;9.146;2022-07-23T11:27:39;22.67;;;10.07;;
24644;SDS011;12780;45.502;9.146;2022-07-23T11:30:07;13.95;;;8.45;;
24644;SDS011;12780;45.502;9.146;2022-07-23T11:32:35;13.18;;;8.48;;
24644;SDS011;12780;45.502;9.146;2022-07-23T11:35:18;16.83;;;8.50;;
24644;SDS011;12780;45.502;9.146;2022-07-23T11:38:02;18.17;;;8.75;;
24644;SDS011;12780;45.502;9.146;2022-07-23T11:40:31;16.40;;;9.68;;
24644;SDS011;12780;45.502;9.146;2022-07-23T11:42:58;13.70;;;9.07;;
24644;SDS011;12780;45.502;9.146;2022-07-23T11:45:30;12.85;;;8.38;;
24644;SDS011;12780;45.502;9.146;2022-07-23T11:48:04;11.70;;;8.23;;
24644;SDS011;12780;45.502;9.146;2022-07-23T11:50:33;14.10;;;9.23;;
24644;SDS011;12780;45.502;9.146;2022-07-23T11:52:59;16.35;;;9.00;;
24644;SDS011;12780;45.502;9.146;2022-07-23T11:55:25;16.55;;;9.75;;
24644;SDS011;12780;45.502;9.146;2022-07-23T11:57:53;14.25;;;9.00;;
24644;SDS011;12780;45.502;9.146;2022-07-23T12:00:20;13.88;;;8.85;;
24644;SDS011;12780;45.502;9.146;2022-07-23T12:02:49;14.27;;;8.80;;
24644;SDS011;12780;45.502;9.146;2022-07-23T12:05:21;14.32;;;8.85;;
24644;SDS011;12780;45.502;9.146;2022-07-23T12:07:51;13.48;;;8.50;;
24644;SDS011;12780;45.502;9.146;2022-07-23T12:12:52;15.25;;;8.38;;
24644;SDS011;12780;45.502;9.146;2022-07-23T12:15:19;14.45;;;9.20;;
24644;SDS011;12780;45.502;9.146;2022-07-23T12:17:51;15.73;;;8.73;;
24644;SDS011;12780;45.502;9.146;2022-07-23T12:20:20;11.07;;;8.60;;
24644;SDS011;12780;45.502;9.146;2022-07-23T12:22:48;13.45;;;9.18;;
24644;SDS011;12780;45.502;9.146;2022-07-23T12:25:17;15.73;;;8.80;;
24644;SDS011;12780;45.502;9.146;2022-07-23T12:27:59;11.15;;;8.60;;
24644;SDS011;12780;45.502;9.146;2022-07-23T12:30:32;11.73;;;8.43;;
24644;SDS011;12780;45.502;9.146;2022-07-23T12:33:02;11.88;;;8.73;;
24644;SDS011;12780;45.502;9.146;2022-07-23T12:35:33;14.32;;;9.23;;
24644;SDS011;12780;45.502;9.146;2022-07-23T12:38:06;14.82;;;8.73;;
24644;SDS011;12780;45.502;9.146;2022-07-23T12:40:37;17.45;;;8.95;;
24644;SDS011;12780;45.502;9.146;2022-07-23T12:43:12;16.73;;;9.32;;
24644;SDS011;12780;45.502;9.146;2022-07-23T12:48:38;16.83;;;8.52;;
24644;SDS011;12780;45.502;9.146;2022-07-23T12:51:05;12.32;;;8.52;;
24644;SDS011;12780;45.502;9.146;2022-07-23T12:53:41;14.98;;;9.25;;
24644;SDS011;12780;45.502;9.146;2022-07-23T12:56:10;14.70;;;9.93;;
24644;SDS011;12780;45.502;9.146;2022-07-23T12:58:58;14.77;;;8.90;;
24644;SDS011;12780;45.502;9.146;2022-07-23T13:01:24;14.50;;;9.02;;
24644;SDS011;12780;45.502;9.146;2022-07-23T13:03:56;17.45;;;9.27;;
24644;SDS011;12780;45.502;9.146;2022-07-23T13:06:27;10.60;;;8.45;;
24644;SDS011;12780;45.502;9.146;2022-07-23T13:08:54;16.35;;;10.13;;
24644;SDS011;12780;45.502;9.146;2022-07-23T13:11:20;13.85;;;8.20;;
24644;SDS011;12780;45.502;9.146;2022-07-23T13:13:46;17.75;;;8.50;;
24644;SDS011;12780;45.502;9.146;2022-07-23T13:16:12;14.52;;;8.93;;
24644;SDS011;12780;45.502;9.146;2022-07-23T13:18:38;13.70;;;8.60;;
24644;SDS011;12780;45.502;9.146;2022-07-23T13:21:03;12.27;;;7.90;;
24644;SDS011;12780;45.502;9.146;2022-07-23T13:23:29;11.13;;;8.20;;
24644;SDS011;12780;45.502;9.146;2022-07-23T13:25:54;11.43;;;8.25;;
24644;SDS011;12780;45.502;9.146;2022-07-23T13:28:21;11.65;;;8.10;;
24644;SDS011;12780;45.502;9.146;2022-07-23T13:30:47;11.40;;;8.15;;
24644;SDS011;12780;45.502;9.146;2022-07-23T13:33:18;12.02;;;7.55;;
24644;SDS011;12780;45.502;9.146;2022-07-23T13:35:46;15.98;;;8.13;;
24644;SDS011;12780;45.502;9.146;2022-07-23T13:38:12;14.70;;;8.38;;
24644;SDS011;12780;45.502;9.146;2022-07-23T13:40:38;9.23;;;8.00;;
24644;SDS011;12780;45.502;9.146;2022-07-23T13:43:07;13.30;;;8.15;;
24644;SDS011;12780;45.502;9.146;2022-07-23T13:45:37;14.90;;;8.10;;
24644;SDS011;12780;45.502;9.146;2022-07-23T13:48:03;13.90;;;8.63;;
24644;SDS011;12780;45.502;9.146;2022-07-23T13:50:30;15.25;;;8.57;;
24644;SDS011;12780;45.502;9.146;2022-07-23T13:52:56;14.18;;;8.00;;
24644;SDS011;12780;45.502;9.146;2022-07-23T13:55:21;18.30;;;8.30;;
24644;SDS011;12780;45.502;9.146;2022-07-23T13:57:47;15.32;;;7.90;;
24644;SDS011;12780;45.502;9.146;2022-07-23T14:00:13;11.30;;;8.50;;
24644;SDS011;12780;45.502;9.146;2022-07-23T14:02:40;14.82;;;8.02;;
24644;SDS011;12780;45.502;9.146;2022-07-23T14:05:07;16.98;;;8.00;;
24644;SDS011;12780;45.502;9.146;2022-07-23T14:07:34;13.65;;;8.02;;
24644;SDS011;12780;45.502;9.146;2022-07-23T14:10:01;13.90;;;7.68;;
24644;SDS011;12780;45.502;9.146;2022-07-23T14:12:28;12.75;;;8.48;;
24644;SDS011;12780;45.502;9.146;2022-07-23T14:14:54;10.55;;;7.85;;
24644;SDS011;12780;45.502;9.146;2022-07-23T14:17:20;15.35;;;8.75;;
24644;SDS011;12780;45.502;9.146;2022-07-23T14:19:46;14.57;;;8.98;;
24644;SDS011;12780;45.502;9.146;2022-07-23T14:22:11;14.00;;;7.95;;
24644;SDS011;12780;45.502;9.146;2022-07-23T14:24:37;13.60;;;7.53;;
24644;SDS011;12780;45.502;9.146;2022-07-23T14:27:03;10.93;;;7.82;;
24644;SDS011;12780;45.502;9.146;2022-07-23T14:29:29;9.77;;;7.20;;
24644;SDS011;12780;45.502;9.146;2022-07-23T14:31:55;12.18;;;8.77;;
24644;SDS011;12780;45.502;9.146;2022-07-23T14:34:22;12.10;;;7.10;;
24644;SDS011;12780;45.502;9.146;2022-07-23T14:36:47;11.88;;;7.00;;
24644;SDS011;12780;45.502;9.146;2022-07-23T14:39:13;8.82;;;7.57;;
24644;SDS011;12780;45.502;9.146;2022-07-23T14:41:40;14.38;;;7.95;;
24644;SDS011;12780;45.502;9.146;2022-07-23T14:44:06;11.98;;;8.20;;
24644;SDS011;12780;45.502;9.146;2022-07-23T14:46:32;17.20;;;8.70;;
24644;SDS011;12780;45.502;9.146;2022-07-23T14:48:57;16.58;;;8.20;;
24644;SDS011;12780;45.502;9.146;2022-07-23T14:51:23;15.43;;;7.82;;
24644;SDS011;12780;45.502;9.146;2022-07-23T14:53:49;9.40;;;6.97;;
24644;SDS011;12780;45.502;9.146;2022-07-23T14:56:15;11.70;;;7.82;;
24644;SDS011;12780;45.502;9.146;2022-07-23T14:58:41;13.32;;;7.80;;
24644;SDS011;12780;45.502;9.146;2022-07-23T15:01:07;14.63;;;8.02;;
24644;SDS011;12780;45.502;9.146;2022-07-23T15:03:33;14.13;;;8.15;;
24644;SDS011;12780;45.502;9.146;2022-07-23T15:05:59;9.77;;;8.02;;
24644;SDS011;12780;45.502;9.146;2022-07-23T15:08:25;11.13;;;8.20;;
24644;SDS011;12780;45.502;9.146;2022-07-23T15:10:50;10.73;;;7.28;;
24644;SDS011;12780;45.502;9.146;2022-07-23T15:13:16;16.58;;;7.57;;